Time;durP1;ratioP1;P1;durP2;ratioP2;P2;SDS_P1;SDS_P2;PMS_P1;PMS_P2;Temp;Humidity;BMP_temperature;BMP_pressure;BME280_temperature;BME280_humidity;BME280_pressure;Samples;Min_cycle;Max_cycle;Signal;HPM_P1;HPM_P2
2023/08/29 00:00:11;;;;;;;;;17.80;16.60;;;;;25.94;32.46;98040.69;5074136;28;8912;-79
2023/08/29 00:03:04;;;;;;;;;17.20;16.40;;;;;25.25;33.53;98062.38;5059245;28;8849;-77
2023/08/29 00:05:33;;;;;;;;;17.60;17.60;;;;;25.06;34.55;98057.28;5075090;28;9048;-78
2023/08/29 00:08:02;;;;;;;;;15.00;14.60;;;;;25.58;33.24;98042.81;5075335;28;8977;-77
2023/08/29 00:10:31;;;;;;;;;13.40;13.20;;;;;25.88;33.13;98036.78;5093981;28;8841;-77
2023/08/29 00:13:00;;;;;;;;;12.60;11.60;;;;;26.07;32.62;98021.34;5094413;28;8845;-78
2023/08/29 00:15:29;;;;;;;;;11.00;11.00;;;;;26.27;32.53;98040.72;5094656;28;8866;-77
2023/08/29 00:18:00;;;;;;;;;14.00;12.80;;;;;26.39;32.04;98060.88;5028232;28;8950;-79
2023/08/29 00:20:30;;;;;;;;;17.00;15.20;;;;;26.27;32.25;98067.66;5096106;28;8873;-77
2023/08/29 00:22:59;;;;;;;;;15.00;13.00;;;;;26.29;32.62;98061.06;5093028;28;8919;-80
2023/08/29 00:25:27;;;;;;;;;12.40;12.40;;;;;26.40;32.32;98051.81;5057735;28;8950;-78
2023/08/29 00:27:56;;;;;;;;;15.60;13.60;;;;;26.44;32.33;98052.31;5074885;28;8996;-78
2023/08/29 00:30:26;;;;;;;;;12.20;12.20;;;;;26.55;32.25;98045.72;5092862;28;8976;-77
2023/08/29 00:32:56;;;;;;;;;12.60;11.60;;;;;26.64;31.97;98064.41;4981467;28;8856;-77
2023/08/29 00:35:25;;;;;;;;;16.20;15.40;;;;;26.65;32.07;98076.03;4965221;28;8852;-77
2023/08/29 00:37:55;;;;;;;;;14.80;13.60;;;;;26.61;32.49;98072.03;5041269;28;8968;-78
2023/08/29 00:40:30;;;;;;;;;22.20;20.00;;;;;26.27;36.06;98063.09;5032633;28;8904;-78
2023/08/29 00:43:00;;;;;;;;;23.20;22.40;;;;;26.18;36.56;98069.50;5049536;28;8862;-78
2023/08/29 00:45:32;;;;;;;;;20.00;20.00;;;;;26.11;37.09;98081.09;5032848;28;8886;-77
2023/08/29 00:48:02;;;;;;;;;22.40;20.20;;;;;25.85;37.70;98082.03;5016369;28;9708;-78
2023/08/29 00:50:32;;;;;;;;;19.60;18.60;;;;;25.97;37.64;98069.16;5032806;28;9682;-78
2023/08/29 00:53:05;;;;;;;;;18.40;18.20;;;;;25.94;37.87;98070.31;5032703;28;8842;-78
2023/08/29 00:55:36;;;;;;;;;21.40;19.80;;;;;25.89;37.97;98067.28;5049522;28;9725;-77
2023/08/29 00:58:05;;;;;;;;;19.40;19.40;;;;;25.98;38.29;98062.75;5032772;28;8865;-78
2023/08/29 01:00:35;;;;;;;;;20.20;19.40;;;;;25.90;38.01;98050.97;5041698;28;8854;-76
2023/08/29 01:03:04;;;;;;;;;21.00;20.00;;;;;25.90;38.52;98055.50;5051680;28;8858;-77
2023/08/29 01:05:34;;;;;;;;;21.40;20.20;;;;;25.80;38.57;98060.19;5049146;28;8901;-78
2023/08/29 01:08:05;;;;;;;;;19.60;19.00;;;;;25.72;38.56;98055.63;5032824;28;8889;-78
2023/08/29 01:10:41;;;;;;;;;23.60;22.40;;;;;25.73;38.69;98046.53;5063692;28;8832;-77
2023/08/29 01:13:20;;;;;;;;;23.80;23.80;;;;;25.71;39.20;98041.31;5107994;28;8859;-76
2023/08/29 01:15:51;;;;;;;;;20.20;20.20;;;;;25.46;39.74;98043.13;5107559;28;9697;-78
2023/08/29 01:18:25;;;;;;;;;24.40;23.20;;;;;25.50;39.95;98044.47;5094890;28;8847;-77
2023/08/29 01:21:03;;;;;;;;;18.20;17.40;;;;;25.44;40.57;98034.38;5094217;28;8839;-79
2023/08/29 01:23:40;;;;;;;;;22.60;21.80;;;;;25.54;40.12;98033.41;5093957;28;8831;-78
2023/08/29 01:26:13;;;;;;;;;22.80;21.80;;;;;25.64;39.91;98051.09;5093607;28;8870;-75
2023/08/29 01:28:44;;;;;;;;;22.40;22.20;;;;;25.54;40.53;98053.06;5093703;28;9607;-78
2023/08/29 01:31:14;;;;;;;;;24.40;22.60;;;;;25.51;40.60;98056.94;5112324;28;8867;-78
2023/08/29 01:33:43;;;;;;;;;22.00;22.00;;;;;25.53;40.62;98054.09;5111876;28;8843;-80
2023/08/29 01:36:12;;;;;;;;;24.60;22.80;;;;;25.52;40.43;98052.41;5112104;28;8844;-76
2023/08/29 01:38:41;;;;;;;;;20.20;19.00;;;;;25.52;40.81;98055.09;5093481;28;8836;-79
2023/08/29 01:41:09;;;;;;;;;23.20;22.60;;;;;25.46;40.53;98043.13;5076369;28;8924;-78
2023/08/29 01:43:39;;;;;;;;;28.50;26.50;;;;;25.36;40.92;98044.28;5093321;28;8847;-78
2023/08/29 01:46:08;;;;;;;;;23.80;22.80;;;;;25.27;40.83;98051.47;5076163;28;9013;-77
2023/08/29 01:48:39;;;;;;;;;22.00;21.25;;;;;25.39;41.11;98052.84;5093197;28;8835;-76
2023/08/29 01:51:08;;;;;;;;;21.40;19.60;;;;;25.28;40.85;98059.38;5093155;28;8912;-79
2023/08/29 01:53:38;;;;;;;;;22.80;21.80;;;;;25.11;41.29;98057.59;5092979;28;8832;-77
2023/08/29 01:56:08;;;;;;;;;19.80;18.20;;;;;25.22;41.39;98062.69;5076734;28;8856;-75
2023/08/29 01:58:40;;;;;;;;;20.60;20.00;;;;;25.31;41.02;98061.72;5089586;28;8830;-78
2023/08/29 02:01:09;;;;;;;;;21.00;18.60;;;;;25.28;41.32;98066.56;5067905;28;9006;-78
2023/08/29 02:03:45;;;;;;;;;20.60;19.20;;;;;25.12;41.53;98062.81;5068340;28;8852;-78
2023/08/29 02:06:14;;;;;;;;;18.20;17.60;;;;;24.95;41.49;98065.63;5052311;28;8868;-78
2023/08/29 02:08:44;;;;;;;;;20.80;19.80;;;;;25.09;41.20;98067.69;5074832;28;8851;-76
2023/08/29 02:11:13;;;;;;;;;23.40;21.00;;;;;25.01;41.23;98084.63;5067156;28;8855;-77
2023/08/29 02:13:43;;;;;;;;;21.40;20.60;;;;;25.01;41.59;98073.88;5062067;28;8886;-79
2023/08/29 02:16:12;;;;;;;;;19.00;19.00;;;;;25.04;41.38;98078.94;5051630;28;9602;-77
2023/08/29 02:18:41;;;;;;;;;21.60;21.60;;;;;24.97;41.09;98080.56;5067995;28;8840;-75
2023/08/29 02:21:13;;;;;;;;;28.00;27.60;;;;;24.90;41.70;98080.34;5028007;28;8868;-77
2023/08/29 02:23:42;;;;;;;;;21.40;19.60;;;;;24.52;42.06;98081.63;5028101;28;8875;-79
2023/08/29 02:26:10;;;;;;;;;20.60;18.60;;;;;24.69;41.64;98075.34;4993899;28;8982;-76
2023/08/29 02:28:39;;;;;;;;;23.60;22.00;;;;;24.74;41.58;98067.69;5027789;28;8924;-77
2023/08/29 02:31:10;;;;;;;;;22.60;20.60;;;;;24.81;41.49;98064.34;4978556;28;9578;-77
2023/08/29 02:33:39;;;;;;;;;21.80;20.00;;;;;24.77;41.71;98061.13;5040533;28;8882;-78
2023/08/29 02:36:08;;;;;;;;;24.60;20.60;;;;;24.61;42.06;98056.50;5034451;28;8990;-77
2023/08/29 02:38:38;;;;;;;;;23.60;22.60;;;;;24.60;42.39;98049.41;5067332;28;8887;-78
2023/08/29 02:41:07;;;;;;;;;21.80;21.80;;;;;24.41;42.67;98046.94;5067215;28;8875;-76
2023/08/29 02:43:36;;;;;;;;;18.40;17.40;;;;;24.25;42.95;98042.31;5050740;28;8855;-81
2023/08/29 02:46:04;;;;;;;;;23.20;22.00;;;;;24.40;42.88;98034.53;5067102;28;8903;-79
2023/08/29 02:48:36;;;;;;;;;21.80;20.40;;;;;24.37;43.08;98032.16;5067081;28;8886;-77
2023/08/29 02:51:04;;;;;;;;;18.20;18.20;;;;;24.41;42.34;98031.66;5050363;28;8970;-77
2023/08/29 02:53:33;;;;;;;;;21.00;21.00;;;;;24.18;43.26;98031.34;5088920;28;8861;-77
2023/08/29 02:56:02;;;;;;;;;20.60;19.60;;;;;24.14;42.98;98022.75;5071721;28;8862;-78
2023/08/29 02:58:31;;;;;;;;;19.80;19.40;;;;;24.02;43.37;98026.69;5071787;28;8995;-76
2023/08/29 03:01:00;;;;;;;;;21.60;20.40;;;;;24.19;42.76;98029.50;5089913;28;9657;-78
2023/08/29 03:03:29;;;;;;;;;19.40;18.00;;;;;24.22;43.23;98023.81;5072491;28;8964;-76
2023/08/29 03:06:00;;;;;;;;;19.60;19.60;;;;;24.07;43.34;98013.59;5092651;28;8857;-77
2023/08/29 03:08:29;;;;;;;;;17.20;17.00;;;;;24.28;42.80;98028.56;5087147;28;8845;-77
2023/08/29 03:11:03;;;;;;;;;21.00;20.80;;;;;24.24;43.18;98028.03;5083574;28;8862;-76
2023/08/29 03:13:33;;;;;;;;;24.20;23.80;;;;;24.07;43.62;98031.56;5055000;28;8973;-77
2023/08/29 03:16:01;;;;;;;;;20.40;17.60;;;;;24.26;43.41;98015.31;5071849;28;8881;-78
2023/08/29 03:18:31;;;;;;;;;26.80;23.40;;;;;24.34;43.12;98006.47;5072017;28;8841;-78
2023/08/29 03:21:05;;;;;;;;;22.40;21.40;;;;;24.45;42.83;98008.91;5090031;28;9644;-78
2023/08/29 03:23:34;;;;;;;;;24.20;22.40;;;;;24.48;43.09;98003.19;5072409;28;8871;-76
2023/08/29 03:26:05;;;;;;;;;27.20;25.40;;;;;24.35;43.19;98002.78;5071439;28;9673;-78
2023/08/29 03:28:38;;;;;;;;;22.20;22.20;;;;;24.41;43.30;97998.59;5071340;28;8859;-78
2023/08/29 03:31:11;;;;;;;;;21.40;20.20;;;;;24.46;42.83;97985.56;5071023;28;8869;-80
2023/08/29 03:33:41;;;;;;;;;22.60;22.40;;;;;24.46;43.32;97981.00;5089392;28;8841;-79
2023/08/29 03:36:12;;;;;;;;;24.20;23.60;;;;;24.46;42.95;97981.00;5071212;28;8850;-77
2023/08/29 03:38:42;;;;;;;;;21.80;20.60;;;;;24.44;43.06;97996.44;5071408;28;8866;-77
2023/08/29 03:41:10;;;;;;;;;23.20;22.40;;;;;24.45;42.78;97997.28;5070890;28;9631;-79
2023/08/29 03:43:39;;;;;;;;;23.80;21.80;;;;;24.49;42.87;97996.81;5049571;28;9020;-79
2023/08/29 03:46:10;;;;;;;;;24.00;22.60;;;;;24.57;42.47;97990.66;5091534;28;8851;-78
2023/08/29 03:48:40;;;;;;;;;24.60;24.20;;;;;24.65;41.99;97992.53;5108768;28;8861;-80
2023/08/29 03:51:09;;;;;;;;;26.00;24.40;;;;;24.62;42.50;97992.84;5108522;28;8879;-80
2023/08/29 03:53:40;;;;;;;;;32.75;30.50;;;;;24.68;42.13;98005.63;5091636;28;8843;-80
2023/08/29 03:56:10;;;;;;;;;68.00;57.67;;;;;24.71;42.23;98000.78;5042262;28;8855;-77
2023/08/29 03:58:39;;;;;;;;;22.40;22.00;;;;;24.76;41.96;97994.13;5092022;28;9002;-80
2023/08/29 04:01:11;;;;;;;;;19.20;19.20;;;;;24.65;42.32;97996.06;5091875;28;8966;-79
2023/08/29 04:03:40;;;;;;;;;23.20;23.20;;;;;24.51;43.10;97999.34;5100236;28;8844;-77
2023/08/29 04:06:09;;;;;;;;;22.20;22.20;;;;;24.53;42.67;98000.88;5106490;28;8836;-77
2023/08/29 04:08:40;;;;;;;;;20.80;20.40;;;;;24.59;42.84;97991.34;5098547;28;8845;-79
2023/08/29 04:11:09;;;;;;;;;20.80;20.00;;;;;24.63;42.31;97997.22;5054241;28;8877;-78
2023/08/29 04:13:38;;;;;;;;;21.80;21.00;;;;;24.67;42.25;97995.91;5088723;28;8850;-79
2023/08/29 04:16:07;;;;;;;;;25.20;22.60;;;;;24.65;42.14;97995.22;5070942;28;8853;-77
2023/08/29 04:18:36;;;;;;;;;24.00;23.80;;;;;24.67;41.66;98007.47;5088709;28;8834;-78
2023/08/29 04:21:05;;;;;;;;;24.60;22.60;;;;;24.69;41.88;98001.94;5053704;28;8834;-79
2023/08/29 04:23:34;;;;;;;;;22.00;21.40;;;;;24.71;41.76;97986.50;5070850;28;8966;-77
2023/08/29 04:26:04;;;;;;;;;23.40;21.80;;;;;24.55;41.84;97984.59;5089244;28;8850;-77
2023/08/29 04:28:33;;;;;;;;;23.80;22.20;;;;;24.47;41.46;97998.81;5088804;28;9591;-79
2023/08/29 04:31:09;;;;;;;;;24.00;23.00;;;;;24.55;41.82;98004.25;5071111;28;8857;-78
2023/08/29 04:33:38;;;;;;;;;25.40;23.60;;;;;24.44;41.68;97993.75;5087213;28;8934;-77
2023/08/29 04:36:09;;;;;;;;;29.50;29.25;;;;;24.39;41.83;97979.97;5089415;28;8884;-78
2023/08/29 04:38:38;;;;;;;;;19.80;19.00;;;;;24.24;41.76;97979.69;5053169;28;8882;-79
2023/08/29 04:41:08;;;;;;;;;19.20;18.80;;;;;24.26;41.36;97990.28;5089212;28;8984;-82
2023/08/29 04:43:38;;;;;;;;;18.00;17.80;;;;;24.38;40.91;97986.34;5070794;28;8888;-78
2023/08/29 04:46:08;;;;;;;;;21.80;21.80;;;;;24.48;40.76;97992.44;5053869;28;8930;-78
2023/08/29 04:48:37;;;;;;;;;21.60;21.00;;;;;24.34;40.05;97990.34;5037351;28;8868;-79
2023/08/29 04:51:06;;;;;;;;;19.80;19.80;;;;;24.22;40.08;98018.47;5092679;28;8849;-78
2023/08/29 04:53:35;;;;;;;;;23.20;23.20;;;;;24.31;39.11;98033.63;5024597;28;9897;-80
2023/08/29 04:56:05;;;;;;;;;40.25;32.75;;;;;24.34;38.25;98047.59;5092985;28;8978;-76
2023/08/29 04:58:38;;;;;;;;;19.40;16.40;;;;;24.38;38.75;98058.88;5041755;28;8961;-78
2023/08/29 05:01:07;;;;;;;;;16.60;15.80;;;;;24.44;37.46;98068.97;5081856;28;8868;-78
2023/08/29 05:03:36;;;;;;;;;21.20;20.20;;;;;24.50;37.71;98084.44;5087552;28;8895;-80
2023/08/29 05:06:05;;;;;;;;;20.80;18.60;;;;;24.47;37.90;98106.28;5085832;28;8854;-78
2023/08/29 05:08:36;;;;;;;;;15.80;15.40;;;;;24.57;37.95;98119.59;5096023;28;8877;-77
2023/08/29 05:11:06;;;;;;;;;28.75;28.50;;;;;24.65;38.31;98121.50;5073586;28;8842;-78
2023/08/29 05:13:36;;;;;;;;;24.40;24.40;;;;;24.52;39.14;98128.13;5073650;28;9008;-79
2023/08/29 05:16:06;;;;;;;;;22.00;20.20;;;;;24.58;40.84;98163.41;5089965;28;8972;-77
2023/08/29 05:18:35;;;;;;;;;24.20;21.00;;;;;24.60;42.26;98182.91;5073078;28;8842;-78
2023/08/29 05:21:04;;;;;;;;;23.80;23.20;;;;;24.23;44.81;98221.53;5073352;28;9710;-80
2023/08/29 05:23:33;;;;;;;;;24.00;23.40;;;;;23.64;47.09;98208.44;5073395;28;8857;-77
2023/08/29 05:26:03;;;;;;;;;26.50;26.25;;;;;22.86;49.25;98216.63;5091403;28;8861;-80
2023/08/29 05:28:31;;;;;;;;;22.80;22.80;;;;;23.09;49.10;98219.03;5091539;28;9595;-79
2023/08/29 05:31:00;;;;;;;;;25.00;23.60;;;;;22.95;49.17;98229.19;5091516;28;8838;-80
2023/08/29 05:33:31;;;;;;;;;25.00;23.40;;;;;22.66;50.25;98231.91;5091592;28;8830;-79
2023/08/29 05:35:59;;;;;;;;;24.20;23.40;;;;;22.48;50.81;98214.84;5073209;28;9640;-79
2023/08/29 05:38:28;;;;;;;;;22.00;22.00;;;;;22.63;50.95;98220.63;5073226;28;8845;-78
2023/08/29 05:40:58;;;;;;;;;26.00;24.75;;;;;22.39;51.81;98198.63;5091243;28;8887;-78
2023/08/29 05:43:27;;;;;;;;;27.00;25.00;;;;;22.77;51.40;98199.59;5073515;28;8892;-78
2023/08/29 05:45:56;;;;;;;;;28.00;27.50;;;;;22.64;51.98;98192.81;5094061;28;8850;-78
2023/08/29 05:48:25;;;;;;;;;25.75;25.25;;;;;22.76;51.57;98180.97;5077494;28;8841;-81
2023/08/29 05:50:55;;;;;;;;;23.00;22.50;;;;;23.01;50.65;98190.25;5091191;28;8854;-78
2023/08/29 05:53:24;;;;;;;;;20.00;20.00;;;;;22.98;50.37;98206.66;5091096;28;8864;-80
2023/08/29 05:55:52;;;;;;;;;22.00;20.60;;;;;22.87;50.53;98199.56;5091451;28;9050;-78
2023/08/29 05:58:22;;;;;;;;;23.60;20.40;;;;;23.03;49.53;98196.31;5097128;28;8884;-77
2023/08/29 06:00:52;;;;;;;;;25.00;25.00;;;;;22.95;49.55;98191.69;5104854;28;8865;-81
2023/08/29 06:03:21;;;;;;;;;23.50;22.75;;;;;23.26;48.57;98187.94;5108575;28;8832;-79
2023/08/29 06:05:51;;;;;;;;;23.80;22.80;;;;;23.06;48.63;98193.38;5114454;28;8902;-77
2023/08/29 06:08:21;;;;;;;;;24.80;21.00;;;;;23.46;45.84;98194.91;5112414;28;8916;-79
2023/08/29 06:10:50;;;;;;;;;12.80;12.80;;;;;23.53;42.87;98198.72;5026450;28;8848;-77
2023/08/29 06:13:19;;;;;;;;;9.80;9.60;;;;;23.57;40.51;98197.44;5110686;28;8866;-80
2023/08/29 06:15:47;;;;;;;;;9.20;6.60;;;;;23.88;39.26;98197.13;5110643;28;9574;-79
2023/08/29 06:18:16;;;;;;;;;10.20;10.20;;;;;23.83;39.34;98202.13;5058629;28;8843;-77
2023/08/29 06:20:45;;;;;;;;;10.20;10.00;;;;;23.84;38.47;98194.91;5110554;28;8876;-79
2023/08/29 06:23:14;;;;;;;;;11.40;10.60;;;;;23.81;37.93;98184.47;5110365;28;8851;-79
2023/08/29 06:25:45;;;;;;;;;10.00;10.00;;;;;23.86;37.53;98172.28;5110152;28;8916;-79
2023/08/29 06:28:14;;;;;;;;;6.00;5.80;;;;;23.89;37.54;98166.63;5110304;28;8870;-77
2023/08/29 06:30:42;;;;;;;;;5.00;5.00;;;;;23.46;37.17;98165.41;5110682;28;8912;-77
2023/08/29 06:33:11;;;;;;;;;4.60;4.60;;;;;23.37;37.46;98161.81;5110509;28;8849;-78
2023/08/29 06:35:40;;;;;;;;;5.00;4.80;;;;;23.31;37.82;98157.00;5110530;28;8906;-78
2023/08/29 06:38:09;;;;;;;;;4.00;4.00;;;;;23.27;38.15;98144.91;5076164;28;8869;-78
2023/08/29 06:40:38;;;;;;;;;5.40;4.60;;;;;23.52;37.88;98145.22;5090308;28;8853;-78
2023/08/29 06:43:08;;;;;;;;;2.00;2.00;;;;;23.46;38.08;98148.47;5095613;28;8857;-78
2023/08/29 06:45:37;;;;;;;;;6.40;5.00;;;;;23.43;38.07;98159.50;5096167;28;8854;-78
2023/08/29 06:48:07;;;;;;;;;3.20;3.20;;;;;23.26;38.41;98147.72;5044056;28;8888;-77
2023/08/29 06:50:36;;;;;;;;;4.80;4.80;;;;;23.64;37.62;98145.88;5074986;28;8862;-78
2023/08/29 06:53:05;;;;;;;;;5.20;4.20;;;;;23.84;37.20;98141.22;5092433;28;8866;-77
2023/08/29 06:55:34;;;;;;;;;6.40;5.00;;;;;23.91;37.30;98142.31;5094979;28;8890;-79
2023/08/29 06:58:04;;;;;;;;;4.40;3.40;;;;;23.97;37.17;98120.22;5083954;28;8864;-77
2023/08/29 07:00:35;;;;;;;;;4.00;3.00;;;;;24.01;36.24;98093.94;5099588;28;8870;-76
2023/08/29 07:03:05;;;;;;;;;5.00;5.00;;;;;23.75;36.79;98081.25;5055080;28;8869;-79
2023/08/29 07:05:33;;;;;;;;;3.00;2.80;;;;;23.68;36.64;98078.34;5089433;28;9001;-78
2023/08/29 07:08:03;;;;;;;;;2.40;2.40;;;;;23.90;36.15;98070.84;5070657;28;8862;-77
2023/08/29 07:10:33;;;;;;;;;3.80;3.80;;;;;24.23;36.39;98079.22;5089415;28;8862;-79
2023/08/29 07:13:03;;;;;;;;;4.00;2.20;;;;;24.01;37.27;98053.66;5088773;28;8834;-77
2023/08/29 07:15:33;;;;;;;;;2.00;2.00;;;;;24.08;36.68;98022.53;5088971;28;8858;-79
2023/08/29 07:18:05;;;;;;;;;4.60;4.40;;;;;24.27;35.90;98021.53;5070130;28;8849;-77
2023/08/29 07:20:34;;;;;;;;;4.20;4.20;;;;;24.48;35.29;98005.03;5088644;28;8881;-80
2023/08/29 07:23:04;;;;;;;;;3.00;2.60;;;;;24.60;35.37;98013.66;5088563;28;8845;-79
2023/08/29 07:25:41;;;;;;;;;15.00;15.00;;;;;24.40;35.44;97992.41;5020755;28;8834;-78
2023/08/29 07:28:13;;;;;;;;;6.80;5.00;;;;;24.48;34.93;97999.66;5088573;28;8846;-79
2023/08/29 07:30:47;;;;;;;;;2.80;2.80;;;;;24.73;34.42;97989.91;5088540;28;8873;-81
2023/08/29 07:33:16;;;;;;;;;5.60;5.20;;;;;24.48;35.21;98003.19;5089668;28;8849;-77
2023/08/29 07:35:47;;;;;;;;;3.80;3.80;;;;;24.33;34.96;98002.91;5090005;28;8880;-79
2023/08/29 07:38:19;;;;;;;;;5.00;5.00;;;;;24.48;35.08;97995.13;5089481;28;8854;-80
2023/08/29 07:40:48;;;;;;;;;4.20;3.80;;;;;24.63;34.93;98005.28;5088596;28;8950;-78
2023/08/29 07:43:17;;;;;;;;;4.00;4.00;;;;;24.62;34.82;98025.09;5070820;28;8858;-80
2023/08/29 07:45:50;;;;;;;;;3.40;2.80;;;;;24.59;35.50;98015.50;5071065;28;8842;-78
2023/08/29 07:48:19;;;;;;;;;6.40;5.40;;;;;24.40;35.50;98005.00;5089008;28;8853;-79
2023/08/29 07:50:48;;;;;;;;;4.40;4.40;;;;;24.18;35.72;98017.94;5089039;28;8834;-79
2023/08/29 07:53:17;;;;;;;;;6.80;6.00;;;;;24.00;36.62;98009.03;5092252;28;8854;-77
2023/08/29 07:55:46;;;;;;;;;5.40;5.00;;;;;24.48;36.40;98018.47;5093455;28;8899;-80
2023/08/29 07:58:15;;;;;;;;;11.00;10.60;;;;;24.49;35.81;98022.81;5090192;28;8964;-78
2023/08/29 08:00:43;;;;;;;;;6.60;6.60;;;;;24.36;35.89;98034.00;5071545;28;8877;-79
2023/08/29 08:03:14;;;;;;;;;6.00;5.00;;;;;24.30;34.70;98030.09;5088978;28;8961;-79
2023/08/29 08:05:42;;;;;;;;;4.60;4.60;;;;;24.51;34.32;98026.22;5088694;28;8857;-80
2023/08/29 08:08:11;;;;;;;;;5.75;4.50;;;;;24.84;33.51;98038.00;5088419;28;9562;-78
2023/08/29 08:10:40;;;;;;;;;7.00;7.00;;;;;25.11;33.00;98036.97;5070342;28;8886;-77
2023/08/29 08:13:09;;;;;;;;;9.20;9.20;;;;;25.39;32.95;98039.41;5088799;28;9069;-76
2023/08/29 08:15:37;;;;;;;;;5.00;5.00;;;;;25.58;32.25;98050.91;5088700;28;8858;-77
2023/08/29 08:18:07;;;;;;;;;10.20;10.20;;;;;25.08;33.07;98069.53;5088667;28;8939;-78
2023/08/29 08:20:38;;;;;;;;;5.00;4.00;;;;;25.46;31.91;98079.97;5037609;28;8954;-81
2023/08/29 08:23:07;;;;;;;;;7.60;5.20;;;;;25.36;32.36;98076.56;5088531;28;8854;-78
2023/08/29 08:25:36;;;;;;;;;6.60;6.60;;;;;25.29;32.62;98082.56;5092507;28;8930;-79
2023/08/29 08:28:06;;;;;;;;;6.00;6.00;;;;;25.47;31.90;98100.47;5092774;28;9012;-80
2023/08/29 08:30:36;;;;;;;;;5.00;5.00;;;;;25.82;31.93;98098.53;5079250;28;8844;-79
2023/08/29 08:33:06;;;;;;;;;5.60;5.40;;;;;26.13;31.97;98106.84;5112658;28;8836;-78
2023/08/29 08:35:34;;;;;;;;;6.80;6.80;;;;;26.36;31.82;98125.03;5112798;28;8891;-78
2023/08/29 08:38:13;;;;;;;;;4.60;4.60;;;;;26.58;31.96;98129.78;5094719;28;8852;-77
2023/08/29 08:40:42;;;;;;;;;4.20;1.60;;;;;26.61;31.87;98126.75;5112445;28;8944;-78
2023/08/29 08:43:12;;;;;;;;;2.80;2.80;;;;;26.69;31.63;98120.50;5060390;28;8870;-78
2023/08/29 08:45:42;;;;;;;;;5.20;4.20;;;;;26.83;32.01;98108.19;5095024;28;8847;-77
2023/08/29 08:48:11;;;;;;;;;2.60;2.60;;;;;27.00;31.68;98103.59;5101021;28;8930;-77
2023/08/29 08:50:41;;;;;;;;;2.80;2.80;;;;;27.03;31.67;98096.03;5095367;28;8862;-75
2023/08/29 08:53:11;;;;;;;;;4.60;4.60;;;;;27.12;32.08;98079.78;5104727;28;8911;-79
2023/08/29 08:55:43;;;;;;;;;4.20;4.20;;;;;27.22;32.22;98064.25;5102433;28;8889;-78
2023/08/29 08:58:12;;;;;;;;;4.00;3.60;;;;;26.89;32.58;98055.41;5092489;28;8849;-75
2023/08/29 09:00:41;;;;;;;;;4.60;4.60;;;;;26.93;32.90;98078.31;5091739;28;8850;-77
2023/08/29 09:03:10;;;;;;;;;4.40;4.40;;;;;26.64;33.31;98095.91;5091901;28;8846;-79
2023/08/29 09:05:39;;;;;;;;;7.00;6.00;;;;;26.46;33.37;98102.34;5056768;28;8865;-78
2023/08/29 09:08:08;;;;;;;;;4.80;4.80;;;;;26.72;33.43;98114.78;5091807;28;8825;-78
2023/08/29 09:10:39;;;;;;;;;4.80;4.80;;;;;26.83;33.61;98116.25;5091732;28;8888;-78
2023/08/29 09:13:16;;;;;;;;;6.00;5.60;;;;;26.93;33.41;98126.84;5056825;28;8862;-78
2023/08/29 09:15:46;;;;;;;;;5.40;5.40;;;;;26.81;33.31;98119.13;5039691;28;8862;-80
2023/08/29 09:18:24;;;;;;;;;4.40;3.80;;;;;27.02;32.62;98118.63;5091272;28;8858;-78
2023/08/29 09:20:54;;;;;;;;;5.40;5.40;;;;;27.04;32.68;98116.59;5091602;28;8858;-79
2023/08/29 09:23:24;;;;;;;;;7.00;6.00;;;;;26.92;33.34;98101.75;5091498;28;8864;-77
2023/08/29 09:25:55;;;;;;;;;5.00;3.40;;;;;26.93;33.57;98108.84;5091242;28;8829;-80
2023/08/29 09:28:29;;;;;;;;;5.60;5.00;;;;;27.03;33.43;98124.84;5091515;28;8842;-79
2023/08/29 09:31:05;;;;;;;;;6.60;6.60;;;;;26.81;33.75;98115.59;5091057;28;8881;-79
2023/08/29 09:33:35;;;;;;;;;7.80;7.80;;;;;26.90;33.80;98119.97;5073171;28;8850;-79
2023/08/29 09:36:05;;;;;;;;;5.40;5.20;;;;;27.08;33.48;98125.19;5090882;28;8842;-77
2023/08/29 09:38:35;;;;;;;;;7.40;7.40;;;;;26.83;34.15;98124.34;5091238;28;8830;-79
2023/08/29 09:41:04;;;;;;;;;6.60;6.60;;;;;27.08;33.50;98119.78;5091937;28;8968;-77
2023/08/29 09:43:47;;;;;;;;;9.20;8.60;;;;;27.02;33.82;98109.66;5092185;28;8889;-78
2023/08/29 09:46:21;;;;;;;;;10.00;9.60;;;;;27.13;33.69;98114.69;5092150;28;8834;-79
2023/08/29 09:48:56;;;;;;;;;8.40;7.60;;;;;27.15;33.81;98107.28;5097096;28;8841;-77
2023/08/29 09:51:28;;;;;;;;;8.40;6.80;;;;;27.30;33.63;98120.03;5080064;28;8869;-75
2023/08/29 09:53:58;;;;;;;;;10.00;8.20;;;;;27.36;33.01;98119.34;5095605;28;8942;-77
2023/08/29 09:56:28;;;;;;;;;9.80;9.80;;;;;27.32;32.98;98128.78;5091456;28;8972;-78
2023/08/29 09:59:00;;;;;;;;;11.40;10.40;;;;;27.48;32.55;98126.03;5072960;28;8846;-75
2023/08/29 10:01:29;;;;;;;;;8.20;8.00;;;;;27.49;32.41;98116.06;5090728;28;9713;-78
2023/08/29 10:04:05;;;;;;;;;11.20;10.20;;;;;28.07;31.48;98122.03;5090923;28;8846;-78
2023/08/29 10:06:36;;;;;;;;;9.40;9.40;;;;;27.92;31.46;98119.25;5090479;28;9697;-78
2023/08/29 10:09:05;;;;;;;;;9.40;9.40;;;;;27.90;31.42;98122.13;5038362;28;8896;-80
2023/08/29 10:11:35;;;;;;;;;9.80;9.80;;;;;27.98;31.13;98113.94;5071893;28;8857;-79
2023/08/29 10:14:22;;;;;;;;;10.20;10.20;;;;;27.94;31.52;98115.34;5030607;28;8939;-77
2023/08/29 10:16:52;;;;;;;;;9.80;8.80;;;;;27.96;31.77;98115.16;5090202;28;8846;-76
2023/08/29 10:19:22;;;;;;;;;11.00;10.60;;;;;28.11;31.91;98107.16;5068338;28;8888;-77
2023/08/29 10:21:53;;;;;;;;;12.00;11.00;;;;;28.16;32.31;98110.16;5069569;28;8846;-77
2023/08/29 10:24:23;;;;;;;;;11.40;11.40;;;;;28.30;31.84;98106.66;5069920;28;8870;-78
2023/08/29 10:26:53;;;;;;;;;11.20;11.20;;;;;28.47;31.56;98109.22;5069202;28;8882;-80
2023/08/29 10:29:23;;;;;;;;;10.00;10.00;;;;;28.66;31.36;98105.19;5068564;28;8854;-76
2023/08/29 10:31:52;;;;;;;;;11.20;10.00;;;;;28.77;31.34;98099.34;5069638;28;8862;-78
2023/08/29 10:34:21;;;;;;;;;14.00;13.80;;;;;28.72;31.21;98094.47;5069877;28;8830;-77
2023/08/29 10:36:51;;;;;;;;;14.80;13.60;;;;;28.85;31.61;98101.13;5069717;28;8872;-78
2023/08/29 10:39:20;;;;;;;;;15.80;14.20;;;;;28.83;31.87;98105.88;5069366;28;8834;-78
2023/08/29 10:41:53;;;;;;;;;13.20;12.00;;;;;28.87;31.40;98112.59;5067170;28;8899;-77
2023/08/29 10:44:35;;;;;;;;;11.00;10.60;;;;;29.14;31.26;98114.66;5069555;28;8967;-78
2023/08/29 10:47:16;;;;;;;;;12.40;12.00;;;;;29.33;31.33;98107.00;5070965;28;8931;-78
2023/08/29 10:49:45;;;;;;;;;16.60;15.40;;;;;29.22;31.59;98102.91;5072871;28;8861;-78
2023/08/29 10:52:14;;;;;;;;;15.60;15.60;;;;;29.31;31.84;98107.22;5070827;28;9001;-78
2023/08/29 10:54:43;;;;;;;;;18.20;14.40;;;;;29.23;31.67;98101.88;5069635;28;8954;-78
2023/08/29 10:57:28;;;;;;;;;15.00;13.40;;;;;29.03;32.00;98093.47;5069002;28;8976;-78
2023/08/29 10:59:58;;;;;;;;;12.60;12.60;;;;;29.21;32.24;98103.09;5069317;28;8865;-78
2023/08/29 11:02:29;;;;;;;;;15.40;15.40;;;;;29.34;31.76;98098.69;5069202;28;8981;-76
2023/08/29 11:05:13;;;;;;;;;15.80;15.00;;;;;29.25;32.46;98102.53;5051069;28;8943;-81
2023/08/29 11:07:42;;;;;;;;;18.40;17.20;;;;;29.32;32.79;98092.63;5068695;28;8851;-78
2023/08/29 11:10:20;;;;;;;;;17.20;16.00;;;;;29.42;31.83;98076.09;5069728;28;8849;-78
2023/08/29 11:13:06;;;;;;;;;20.20;19.80;;;;;29.24;32.08;98081.09;5050742;28;8851;-80
2023/08/29 11:16:08;;;;;;;;;15.60;15.00;;;;;29.24;31.47;98089.22;5069154;28;8862;-78
2023/08/29 11:18:36;;;;;;;;;19.50;19.25;;;;;29.41;31.98;98082.56;5076244;28;8888;-77
2023/08/29 11:21:10;;;;;;;;;18.25;17.00;;;;;29.56;30.98;98071.69;5070678;28;8872;-78
2023/08/29 11:23:40;;;;;;;;;16.60;16.40;;;;;29.50;31.64;98078.72;5088848;28;8834;-79
2023/08/29 11:26:10;;;;;;;;;16.80;16.00;;;;;29.54;29.66;98076.47;5088307;28;8842;-78
2023/08/29 11:28:42;;;;;;;;;16.20;15.60;;;;;29.29;29.68;98075.94;5088550;28;8852;-78
2023/08/29 11:31:12;;;;;;;;;16.20;14.80;;;;;29.23;29.50;98071.28;5088196;28;8922;-76
2023/08/29 11:33:41;;;;;;;;;15.25;14.50;;;;;29.33;29.29;98078.09;5036526;28;8846;-79
2023/08/29 11:36:10;;;;;;;;;15.20;13.20;;;;;29.57;29.01;98076.88;5088560;28;8834;-77
2023/08/29 11:38:39;;;;;;;;;17.60;16.00;;;;;29.53;28.58;98072.88;5088842;28;8850;-79
2023/08/29 11:41:08;;;;;;;;;18.00;17.00;;;;;29.86;28.20;98080.59;5061720;28;8831;-77
2023/08/29 11:43:41;;;;;;;;;16.00;16.00;;;;;29.82;28.50;98078.44;5114528;28;8864;-76